Time;durP1;ratioP1;P1;durP2;ratioP2;P2;SDS_P1;SDS_P2;PMS_P1;PMS_P2;Temp;Humidity;BMP_temperature;BMP_pressure;BME280_temperature;BME280_humidity;BME280_pressure;Samples;Min_cycle;Max_cycle;Signal;HPM_P1;HPM_P2
2024/01/30 00:00:37;;;;;;;51.00;28.60;;;3.50;99.90;;;;;;2093341;28;20028;-77
2024/01/30 00:01:38;;;;;;;50.53;27.92;;;3.50;99.90;;;;;;2086449;28;20036;-76
2024/01/30 00:02:38;;;;;;;50.22;28.33;;;3.40;99.90;;;;;;2093892;28;20060;-78
2024/01/30 00:03:39;;;;;;;51.80;28.75;;;3.40;99.90;;;;;;2092914;28;20281;-77
2024/01/30 00:04:39;;;;;;;52.33;28.52;;;3.40;99.90;;;;;;2086308;28;20463;-78
2024/01/30 00:05:40;;;;;;;49.72;28.98;;;3.40;99.90;;;;;;2087933;28;20446;-76
2024/01/30 00:06:40;;;;;;;50.58;28.30;;;3.40;99.90;;;;;;2096774;28;20024;-77
2024/01/30 00:07:41;;;;;;;49.35;29.25;;;3.40;99.90;;;;;;2089302;28;20037;-76
2024/01/30 00:08:41;;;;;;;47.58;27.85;;;3.40;99.90;;;;;;2088853;28;20020;-76
2024/01/30 00:09:42;;;;;;;51.58;28.77;;;3.40;99.90;;;;;;2084721;28;20122;-77
2024/01/30 00:10:42;;;;;;;47.88;28.38;;;3.40;99.90;;;;;;2095072;28;20135;-77
2024/01/30 00:11:43;;;;;;;49.72;28.50;;;3.40;99.90;;;;;;2089479;28;20063;-76
2024/01/30 00:12:44;;;;;;;50.15;27.85;;;3.40;99.90;;;;;;2094101;28;20052;-76
2024/01/30 00:13:44;;;;;;;51.08;27.80;;;3.40;99.90;;;;;;2085598;28;20411;-76
2024/01/30 00:14:45;;;;;;;51.47;28.02;;;3.40;99.90;;;;;;2088623;28;20502;-78
2024/01/30 00:15:46;;;;;;;47.92;27.25;;;3.40;99.90;;;;;;2094929;28;20020;-77
2024/01/30 00:16:46;;;;;;;47.92;27.25;;;3.40;99.90;;;;;;2093178;28;20034;-76
2024/01/30 00:17:47;;;;;;;48.60;27.27;;;3.50;99.90;;;;;;2090282;28;20462;-78
2024/01/30 00:18:48;;;;;;;52.55;27.65;;;3.50;99.90;;;;;;2093504;28;20074;-77
2024/01/30 00:19:49;;;;;;;52.70;28.52;;;3.50;99.90;;;;;;2093496;28;20468;-78
2024/01/30 00:20:49;;;;;;;50.78;27.27;;;3.50;99.90;;;;;;2085426;28;20037;-76
2024/01/30 00:21:50;;;;;;;44.80;26.92;;;3.40;99.90;;;;;;2093042;28;20020;-77
2024/01/30 00:22:50;;;;;;;48.03;27.15;;;3.50;99.90;;;;;;2091409;28;20055;-78
2024/01/30 00:23:51;;;;;;;47.45;26.90;;;3.50;99.90;;;;;;2096250;28;20020;-79
2024/01/30 00:24:51;;;;;;;47.30;27.55;;;3.40;99.90;;;;;;2086029;28;20025;-78
2024/01/30 00:25:52;;;;;;;45.22;26.73;;;3.50;99.90;;;;;;2092773;28;20037;-78
2024/01/30 00:26:52;;;;;;;48.88;26.73;;;3.50;99.90;;;;;;2085187;28;20605;-78
2024/01/30 00:27:53;;;;;;;50.10;27.20;;;3.50;99.90;;;;;;2086150;28;20058;-76
2024/01/30 00:28:53;;;;;;;46.33;27.73;;;3.50;99.90;;;;;;2092283;28;20033;-76
2024/01/30 00:29:54;;;;;;;46.35;26.75;;;3.50;99.90;;;;;;2093853;28;20039;-77
2024/01/30 00:30:54;;;;;;;46.85;27.10;;;3.50;99.90;;;;;;2094109;28;20116;-78
2024/01/30 00:31:55;;;;;;;46.00;27.55;;;3.50;99.90;;;;;;2083978;28;20040;-79
2024/01/30 00:32:55;;;;;;;46.58;26.77;;;3.50;99.90;;;;;;2088962;28;20029;-78
2024/01/30 00:33:56;;;;;;;47.65;27.70;;;3.40;99.90;;;;;;2090643;28;20056;-79
2024/01/30 00:34:56;;;;;;;46.33;26.70;;;3.40;99.90;;;;;;2097428;28;20063;-78
2024/01/30 00:35:57;;;;;;;48.72;27.77;;;3.40;99.90;;;;;;2092442;28;20517;-72
2024/01/30 00:36:57;;;;;;;49.38;27.63;;;3.40;99.90;;;;;;2084234;28;20029;-69
2024/01/30 00:37:58;;;;;;;54.88;28.48;;;3.40;99.90;;;;;;2085186;28;20037;-77
2024/01/30 00:38:58;;;;;;;49.20;26.80;;;3.40;99.90;;;;;;2086351;28;20040;-80
2024/01/30 00:39:59;;;;;;;47.78;26.73;;;3.40;99.90;;;;;;2090120;28;20045;-72
2024/01/30 00:41:00;;;;;;;49.97;27.60;;;3.40;99.90;;;;;;2092927;28;20043;-72
2024/01/30 00:42:00;;;;;;;49.78;27.42;;;3.40;99.90;;;;;;2086464;28;20047;-72
2024/01/30 00:43:01;;;;;;;46.95;27.13;;;3.40;99.90;;;;;;2091468;28;20095;-72
2024/01/30 00:44:01;;;;;;;47.00;27.05;;;3.30;99.90;;;;;;2092804;28;20090;-72
2024/01/30 00:45:02;;;;;;;47.53;27.38;;;3.40;99.90;;;;;;2091215;28;20107;-73
2024/01/30 00:46:03;;;;;;;47.65;27.85;;;3.30;99.90;;;;;;2091052;28;20041;-72
2024/01/30 00:47:04;;;;;;;51.33;28.42;;;3.30;99.90;;;;;;2093240;28;20036;-72
2024/01/30 00:48:05;;;;;;;49.65;27.23;;;3.30;99.90;;;;;;2090030;28;20060;-73
2024/01/30 00:49:05;;;;;;;50.67;27.40;;;3.30;99.90;;;;;;2093899;28;20041;-72
2024/01/30 00:50:06;;;;;;;48.55;28.05;;;3.30;99.90;;;;;;2097108;28;20123;-72
2024/01/30 00:51:07;;;;;;;46.78;26.48;;;3.30;99.90;;;;;;2089407;28;20037;-72
2024/01/30 00:52:07;;;;;;;45.30;27.40;;;3.30;99.90;;;;;;2091381;28;20029;-73
2024/01/30 00:53:08;;;;;;;47.88;26.67;;;3.30;99.90;;;;;;2095042;28;20111;-72
2024/01/30 00:54:08;;;;;;;48.90;27.88;;;3.30;99.90;;;;;;2091849;28;20023;-72
2024/01/30 00:55:09;;;;;;;47.15;27.25;;;3.30;99.90;;;;;;2084233;28;20234;-73
2024/01/30 00:56:09;;;;;;;46.80;27.15;;;3.30;99.90;;;;;;2084306;28;20115;-73
2024/01/30 00:57:10;;;;;;;46.60;26.85;;;3.30;99.90;;;;;;2084940;28;20033;-72
2024/01/30 00:58:10;;;;;;;45.05;27.30;;;3.30;99.90;;;;;;2088929;28;20028;-72
2024/01/30 00:59:11;;;;;;;51.70;27.88;;;3.30;99.90;;;;;;2090005;28;20059;-73
2024/01/30 01:00:12;;;;;;;48.05;27.83;;;3.30;99.90;;;;;;2094594;28;20027;-72
2024/01/30 01:01:14;;;;;;;50.70;27.92;;;3.30;99.90;;;;;;2094889;28;20071;-72
2024/01/30 01:02:17;;;;;;;47.13;27.08;;;3.30;99.90;;;;;;2088925;28;20033;-73
2024/01/30 01:03:17;;;;;;;49.28;27.50;;;3.30;99.90;;;;;;2092724;28;20024;-73
2024/01/30 01:04:18;;;;;;;45.75;27.45;;;3.30;99.90;;;;;;2089180;28;20033;-73
2024/01/30 01:05:18;;;;;;;48.95;27.67;;;3.30;99.90;;;;;;2090437;28;20032;-73
2024/01/30 01:06:19;;;;;;;47.65;26.63;;;3.20;99.90;;;;;;2092062;28;20044;-73
2024/01/30 01:07:20;;;;;;;46.00;26.70;;;3.20;99.90;;;;;;2090723;28;20058;-72
2024/01/30 01:08:20;;;;;;;46.78;26.35;;;3.20;99.90;;;;;;2090093;28;20048;-73
2024/01/30 01:09:21;;;;;;;49.60;27.80;;;3.20;99.90;;;;;;2092940;28;20387;-73
2024/01/30 01:10:22;;;;;;;46.30;26.75;;;3.20;99.90;;;;;;2090755;28;20482;-72
2024/01/30 01:11:23;;;;;;;45.30;26.88;;;3.20;99.90;;;;;;2091002;28;20029;-73
2024/01/30 01:12:23;;;;;;;43.70;25.67;;;3.20;99.90;;;;;;2092070;28;20120;-72
2024/01/30 01:13:24;;;;;;;45.15;26.35;;;3.20;99.90;;;;;;2095617;28;20032;-72
2024/01/30 01:14:25;;;;;;;50.20;27.58;;;3.20;99.90;;;;;;2095319;28;20041;-73
2024/01/30 01:15:25;;;;;;;45.65;25.85;;;3.20;99.90;;;;;;2087352;28;20106;-74
2024/01/30 01:16:26;;;;;;;46.05;26.10;;;3.20;99.90;;;;;;2087084;28;20063;-72
2024/01/30 01:17:27;;;;;;;46.85;26.55;;;3.20;99.90;;;;;;2084889;28;20025;-72
2024/01/30 01:18:27;;;;;;;43.83;25.50;;;3.20;99.90;;;;;;2091597;28;20025;-73
2024/01/30 01:19:28;;;;;;;46.22;26.33;;;3.20;99.90;;;;;;2091231;28;20398;-73
2024/01/30 01:20:28;;;;;;;49.15;26.83;;;3.20;99.90;;;;;;2086236;28;20556;-72
2024/01/30 01:21:29;;;;;;;44.38;25.38;;;3.20;99.90;;;;;;2084830;28;20035;-72
2024/01/30 01:22:29;;;;;;;45.72;26.23;;;3.10;99.90;;;;;;2091204;28;20024;-72
2024/01/30 01:23:30;;;;;;;45.78;26.02;;;3.20;99.90;;;;;;2085714;28;20021;-72
2024/01/30 01:24:34;;;;;;;46.38;26.73;;;3.20;99.90;;;;;;2092763;28;20052;-72
2024/01/30 01:25:34;;;;;;;43.97;26.15;;;3.10;99.90;;;;;;2084051;28;20113;-74
2024/01/30 01:26:35;;;;;;;48.03;26.90;;;3.20;99.90;;;;;;2086172;28;20477;-72
2024/01/30 01:27:40;;;;;;;42.08;25.83;;;3.10;99.90;;;;;;2091438;28;20033;-72
2024/01/30 01:28:41;;;;;;;46.45;26.75;;;3.10;99.90;;;;;;2085399;28;20025;-72
2024/01/30 01:29:41;;;;;;;44.05;25.80;;;3.10;99.90;;;;;;2097245;28;20047;-73
2024/01/30 01:30:42;;;;;;;47.85;26.58;;;3.10;99.90;;;;;;2091701;28;20043;-73
2024/01/30 01:31:46;;;;;;;43.85;26.00;;;3.10;99.90;;;;;;2085838;28;20039;-73
2024/01/30 01:32:54;;;;;;;46.78;26.73;;;3.10;99.90;;;;;;2090355;28;20052;-72
2024/01/30 01:33:55;;;;;;;43.65;25.17;;;3.00;99.90;;;;;;2092074;28;20040;-73
2024/01/30 01:34:55;;;;;;;44.25;25.80;;;3.10;99.90;;;;;;2088374;28;20067;-72
2024/01/30 01:35:56;;;;;;;45.40;26.15;;;3.10;99.90;;;;;;2087690;28;20090;-73
2024/01/30 01:36:56;;;;;;;45.55;26.05;;;3.10;99.90;;;;;;2092409;28;20036;-73
2024/01/30 01:37:59;;;;;;;43.67;24.85;;;3.10;99.90;;;;;;2096760;28;20100;-72
2024/01/30 01:39:00;;;;;;;43.15;25.40;;;3.10;99.90;;;;;;2087794;28;20036;-72
2024/01/30 01:40:00;;;;;;;41.90;25.50;;;3.10;99.90;;;;;;2092412;28;20091;-74
2024/01/30 01:41:01;;;;;;;48.88;25.45;;;3.10;99.90;;;;;;2090374;28;20024;-72
2024/01/30 01:42:01;;;;;;;46.15;25.92;;;3.10;99.90;;;;;;2086337;28;20021;-72
2024/01/30 01:43:05;;;;;;;45.40;25.23;;;3.10;99.90;;;;;;2085157;28;20061;-73
2024/01/30 01:44:05;;;;;;;43.88;25.73;;;3.10;99.90;;;;;;2084663;28;20033;-73
2024/01/30 01:45:06;;;;;;;41.03;24.55;;;3.10;99.90;;;;;;2089761;28;20048;-73
2024/01/30 01:46:08;;;;;;;46.30;25.05;;;3.10;99.90;;;;;;2091196;28;20115;-73
2024/01/30 01:47:09;;;;;;;41.38;25.08;;;3.10;99.90;;;;;;2092322;28;20376;-73
2024/01/30 01:48:10;;;;;;;42.58;24.88;;;3.10;99.90;;;;;;2098154;28;20090;-72
2024/01/30 01:49:11;;;;;;;46.53;26.08;;;3.10;99.90;;;;;;2095754;28;20503;-72
2024/01/30 01:50:13;;;;;;;42.45;24.42;;;3.10;99.90;;;;;;2092256;28;20024;-72
2024/01/30 01:51:15;;;;;;;45.13;25.55;;;3.00;99.90;;;;;;2084188;28;20036;-72
2024/01/30 01:52:16;;;;;;;44.55;25.42;;;3.00;99.90;;;;;;2087605;28;20036;-72
2024/01/30 01:53:17;;;;;;;45.10;25.63;;;3.10;99.90;;;;;;2084470;28;20067;-72
2024/01/30 01:54:18;;;;;;;44.05;25.55;;;3.10;99.90;;;;;;2084389;28;20171;-73
2024/01/30 01:55:21;;;;;;;44.22;25.42;;;3.10;99.90;;;;;;2084495;28;20048;-73
2024/01/30 01:56:25;;;;;;;44.88;25.70;;;3.10;99.90;;;;;;2092449;28;20069;-74
2024/01/30 01:57:26;;;;;;;45.53;24.73;;;3.00;99.90;;;;;;2087515;28;20098;-71
2024/01/30 01:58:28;;;;;;;45.80;25.73;;;3.00;99.90;;;;;;2089295;28;20503;-73
2024/01/30 01:59:29;;;;;;;42.47;24.85;;;3.00;99.90;;;;;;2084477;28;20582;-73
2024/01/30 02:00:31;;;;;;;44.33;25.67;;;3.00;99.90;;;;;;2092510;28;20028;-74
2024/01/30 02:01:32;;;;;;;46.58;26.55;;;3.00;99.90;;;;;;2090187;28;20082;-73
2024/01/30 02:02:35;;;;;;;45.38;25.45;;;3.00;99.90;;;;;;2084455;28;20415;-73
2024/01/30 02:03:36;;;;;;;45.50;26.60;;;3.00;99.90;;;;;;2084411;28;20419;-73
2024/01/30 02:04:37;;;;;;;42.20;25.70;;;3.00;99.90;;;;;;2084448;28;20035;-73
2024/01/30 02:05:39;;;;;;;44.05;25.85;;;3.00;99.90;;;;;;2095765;28;20028;-74
2024/01/30 02:06:39;;;;;;;44.90;25.55;;;2.90;99.90;;;;;;2087643;28;20044;-75
2024/01/30 02:07:41;;;;;;;42.90;25.10;;;3.00;99.90;;;;;;2093500;28;20032;-74
2024/01/30 02:08:42;;;;;;;43.65;25.42;;;3.00;99.90;;;;;;2090267;28;20028;-73
2024/01/30 02:09:43;;;;;;;44.75;26.00;;;3.00;99.90;;;;;;2093061;28;20032;-75
2024/01/30 02:10:44;;;;;;;45.22;26.50;;;3.00;99.90;;;;;;2084692;28;20139;-74
2024/01/30 02:11:44;;;;;;;46.88;25.20;;;3.00;99.90;;;;;;2092312;28;20025;-71
2024/01/30 02:12:45;;;;;;;44.03;25.38;;;3.00;99.90;;;;;;2091137;28;20031;-73
2024/01/30 02:13:46;;;;;;;44.67;26.05;;;3.00;99.90;;;;;;2085353;28;20029;-73
2024/01/30 02:14:47;;;;;;;44.63;25.98;;;3.00;99.90;;;;;;2092187;28;20048;-73
2024/01/30 02:15:54;;;;;;;43.60;25.13;;;3.00;99.90;;;;;;2091834;28;20027;-74
2024/01/30 02:16:54;;;;;;;46.65;25.38;;;3.00;99.90;;;;;;2085049;28;20036;-74
2024/01/30 02:17:55;;;;;;;42.90;25.25;;;3.00;99.90;;;;;;2091916;28;20045;-72
2024/01/30 02:18:55;;;;;;;45.42;26.02;;;2.90;99.90;;;;;;2095440;28;20028;-72
2024/01/30 02:19:56;;;;;;;46.20;25.67;;;2.90;99.90;;;;;;2084390;28;20056;-72
2024/01/30 02:21:01;;;;;;;44.15;25.30;;;2.90;99.90;;;;;;2084451;28;20037;-72
2024/01/30 02:22:02;;;;;;;44.05;25.17;;;2.90;99.90;;;;;;2092655;28;20040;-72
2024/01/30 02:23:04;;;;;;;44.00;24.75;;;2.90;99.90;;;;;;2087989;28;20041;-72
2024/01/30 02:24:05;;;;;;;44.97;25.50;;;2.90;99.90;;;;;;2088352;28;20037;-73
2024/01/30 02:25:06;;;;;;;43.13;25.42;;;2.80;99.90;;;;;;2093105;28;20102;-72
2024/01/30 02:26:06;;;;;;;47.25;25.50;;;2.80;99.90;;;;;;2090847;28;20677;-72
2024/01/30 02:27:07;;;;;;;42.53;24.75;;;2.80;99.90;;;;;;2087223;28;20407;-72
2024/01/30 02:28:07;;;;;;;46.58;25.90;;;2.80;99.90;;;;;;2090973;28;20045;-72
2024/01/30 02:29:08;;;;;;;48.20;25.75;;;2.80;99.90;;;;;;2094274;28;20028;-72
2024/01/30 02:30:09;;;;;;;45.55;26.40;;;2.90;99.90;;;;;;2087537;28;20026;-74
2024/01/30 02:31:10;;;;;;;46.33;26.92;;;2.80;99.90;;;;;;2087367;28;20563;-74
2024/01/30 02:32:10;;;;;;;46.08;26.05;;;2.90;99.90;;;;;;2085845;28;20119;-72
2024/01/30 02:33:11;;;;;;;48.72;26.27;;;2.90;99.90;;;;;;2078600;28;20036;-73
2024/01/30 02:34:11;;;;;;;43.22;25.55;;;2.80;99.90;;;;;;2087287;28;20025;-73
2024/01/30 02:35:12;;;;;;;45.35;26.08;;;2.80;99.90;;;;;;2091973;28;20076;-71
2024/01/30 02:36:12;;;;;;;49.05;26.98;;;2.90;99.90;;;;;;2089112;28;20148;-72
2024/01/30 02:37:13;;;;;;;45.30;26.42;;;2.90;99.90;;;;;;2087429;28;20499;-72
2024/01/30 02:38:15;;;;;;;45.75;26.48;;;2.90;99.90;;;;;;2092287;28;20029;-72
2024/01/30 02:39:15;;;;;;;48.33;27.05;;;2.80;99.90;;;;;;2089730;28;20031;-72
2024/01/30 02:40:16;;;;;;;48.58;25.90;;;2.90;99.90;;;;;;2092755;28;20024;-72
2024/01/30 02:41:16;;;;;;;47.13;26.38;;;2.80;99.90;;;;;;2092004;28;20041;-72
2024/01/30 02:42:17;;;;;;;45.13;25.98;;;2.80;99.90;;;;;;2093492;28;20025;-72
2024/01/30 02:43:17;;;;;;;43.97;25.65;;;2.90;99.90;;;;;;2095345;28;20833;-72
2024/01/30 02:44:18;;;;;;;45.60;25.42;;;2.90;99.90;;;;;;2095876;28;20042;-75
2024/01/30 02:45:19;;;;;;;43.47;26.08;;;2.90;99.90;;;;;;2087295;28;20599;-72
2024/01/30 02:46:19;;;;;;;44.30;25.58;;;2.90;99.90;;;;;;2083472;28;20100;-74
2024/01/30 02:47:20;;;;;;;46.30;26.65;;;2.80;99.90;;;;;;2088091;28;20123;-72
2024/01/30 02:48:20;;;;;;;47.08;26.02;;;2.80;99.90;;;;;;2099165;28;20410;-73
2024/01/30 02:49:21;;;;;;;47.42;25.92;;;2.80;99.90;;;;;;2088198;28;20036;-74
2024/01/30 02:50:22;;;;;;;43.80;25.55;;;2.80;99.90;;;;;;2093158;28;20033;-73
2024/01/30 02:51:22;;;;;;;47.20;26.73;;;2.80;99.90;;;;;;2080926;28;20048;-73
2024/01/30 02:52:23;;;;;;;51.70;26.58;;;2.80;99.90;;;;;;2084954;28;20029;-72
2024/01/30 02:53:24;;;;;;;45.67;25.85;;;2.80;99.90;;;;;;2093214;28;20025;-72
2024/01/30 02:54:25;;;;;;;49.63;26.92;;;2.80;99.90;;;;;;2092836;28;20035;-72
2024/01/30 02:55:25;;;;;;;49.63;27.30;;;2.80;99.90;;;;;;2086794;28;20025;-72
2024/01/30 02:56:26;;;;;;;45.67;27.05;;;2.70;99.90;;;;;;2085600;28;20053;-74
2024/01/30 02:57:26;;;;;;;47.22;26.75;;;2.70;99.90;;;;;;2092444;28;20516;-72
2024/01/30 02:58:27;;;;;;;49.83;26.38;;;2.70;99.90;;;;;;2089329;28;20031;-72
2024/01/30 02:59:27;;;;;;;45.72;26.38;;;2.70;99.90;;;;;;2093295;28;20569;-73
2024/01/30 03:00:28;;;;;;;43.92;25.70;;;2.70;99.90;;;;;;2093702;28;20028;-74
2024/01/30 03:01:28;;;;;;;45.45;26.77;;;2.70;99.90;;;;;;2095047;28;20031;-72
2024/01/30 03:02:29;;;;;;;46.22;26.20;;;2.70;99.90;;;;;;2095034;28;20020;-72
2024/01/30 03:03:30;;;;;;;48.65;27.25;;;2.70;99.90;;;;;;2094064;28;20315;-72
2024/01/30 03:04:30;;;;;;;45.67;26.42;;;2.70;99.90;;;;;;2097350;28;20029;-73
2024/01/30 03:05:31;;;;;;;49.70;27.52;;;2.70;99.90;;;;;;2092744;28;20055;-73
2024/01/30 03:06:31;;;;;;;44.20;26.48;;;2.70;99.90;;;;;;2090270;28;20063;-73
2024/01/30 03:07:32;;;;;;;46.53;26.80;;;2.60;99.90;;;;;;2093716;28;20499;-72
2024/01/30 03:08:35;;;;;;;46.85;26.63;;;2.70;99.90;;;;;;2092979;28;20083;-73
2024/01/30 03:09:36;;;;;;;49.15;27.15;;;2.70;99.90;;;;;;2089049;28;20102;-73
2024/01/30 03:10:36;;;;;;;48.45;27.25;;;2.70;99.90;;;;;;2092550;28;20041;-72
2024/01/30 03:11:37;;;;;;;47.97;27.58;;;2.70;99.90;;;;;;2085395;28;20021;-73
2024/01/30 03:12:37;;;;;;;48.80;27.67;;;2.70;99.90;;;;;;2085532;28;20068;-72
2024/01/30 03:13:38;;;;;;;48.15;27.05;;;2.60;99.90;;;;;;2085802;28;20029;-73
2024/01/30 03:14:39;;;;;;;44.65;26.30;;;2.60;99.90;;;;;;2094525;28;20025;-73
2024/01/30 03:15:39;;;;;;;50.00;27.02;;;2.60;99.90;;;;;;2093952;28;20021;-73
2024/01/30 03:16:40;;;;;;;49.10;26.77;;;2.60;99.90;;;;;;2095201;28;20032;-73
2024/01/30 03:17:41;;;;;;;51.10;27.40;;;2.60;99.90;;;;;;2094753;28;20050;-72
2024/01/30 03:18:41;;;;;;;46.13;26.90;;;2.60;99.90;;;;;;2087530;28;20048;-73
2024/01/30 03:19:42;;;;;;;49.28;26.98;;;2.60;99.90;;;;;;2092892;28;20361;-72
2024/01/30 03:20:42;;;;;;;48.47;27.02;;;2.60;99.90;;;;;;2094266;28;20037;-72
2024/01/30 03:21:43;;;;;;;50.10;27.52;;;2.60;99.90;;;;;;2086844;28;20033;-72
2024/01/30 03:22:43;;;;;;;47.10;26.70;;;2.60;99.90;;;;;;2090814;28;20029;-73
2024/01/30 03:23:44;;;;;;;52.90;27.70;;;2.60;99.90;;;;;;2093619;28;20094;-73
2024/01/30 03:24:44;;;;;;;48.63;26.27;;;2.60;99.90;;;;;;2094715;28;20073;-72
2024/01/30 03:25:45;;;;;;;46.38;26.95;;;2.60;99.90;;;;;;2091119;28;20080;-72
2024/01/30 03:26:45;;;;;;;46.83;27.02;;;2.60;99.90;;;;;;2092236;28;20025;-72
2024/01/30 03:27:46;;;;;;;49.90;27.42;;;2.50;99.90;;;;;;2093646;28;20662;-72
2024/01/30 03:28:47;;;;;;;50.10;26.73;;;2.50;99.90;;;;;;2085477;28;20017;-72
2024/01/30 03:29:47;;;;;;;50.92;27.10;;;2.50;99.90;;;;;;2085592;28;20021;-73
2024/01/30 03:30:48;;;;;;;49.30;27.23;;;2.50;99.90;;;;;;2093388;28;20110;-73
2024/01/30 03:31:48;;;;;;;50.78;27.52;;;2.50;99.90;;;;;;2088735;28;20028;-72
2024/01/30 03:32:49;;;;;;;47.70;26.08;;;2.50;99.90;;;;;;2085578;28;20029;-71
2024/01/30 03:33:49;;;;;;;53.50;27.63;;;2.50;99.90;;;;;;2085377;28;20028;-72
2024/01/30 03:34:50;;;;;;;50.75;28.20;;;2.60;99.90;;;;;;2084612;28;20029;-72
2024/01/30 03:35:50;;;;;;;47.25;26.85;;;2.50;99.90;;;;;;2087424;28;20104;-73
2024/01/30 03:36:51;;;;;;;46.05;25.85;;;2.60;99.90;;;;;;2090735;28;20125;-73
2024/01/30 03:37:51;;;;;;;48.17;26.80;;;2.60;99.90;;;;;;2095846;28;20031;-72
2024/01/30 03:38:52;;;;;;;47.05;26.98;;;2.60;99.90;;;;;;2093254;28;20033;-73
2024/01/30 03:39:52;;;;;;;49.47;27.63;;;2.60;99.90;;;;;;2096580;28;20068;-73
2024/01/30 03:40:53;;;;;;;49.63;26.77;;;2.60;99.90;;;;;;2087402;28;20051;-72
2024/01/30 03:41:53;;;;;;;51.72;28.40;;;2.60;99.90;;;;;;2095103;28;20035;-73
2024/01/30 03:42:54;;;;;;;48.88;26.13;;;2.60;99.90;;;;;;2093096;28;20063;-73
2024/01/30 03:43:54;;;;;;;45.53;26.42;;;2.60;99.90;;;;;;2087823;28;20036;-73
2024/01/30 03:44:56;;;;;;;51.00;26.65;;;2.60;99.90;;;;;;2094898;28;20034;-72
2024/01/30 03:45:57;;;;;;;49.15;26.88;;;2.60;99.90;;;;;;2093217;28;20101;-72
2024/01/30 03:46:57;;;;;;;48.60;26.83;;;2.60;99.90;;;;;;2086798;28;20068;-72
2024/01/30 03:47:58;;;;;;;44.75;26.27;;;2.60;99.90;;;;;;2087195;28;20674;-72
2024/01/30 03:48:58;;;;;;;49.33;27.80;;;2.60;99.90;;;;;;2089318;28;20054;-72
2024/01/30 03:49:59;;;;;;;46.60;26.55;;;2.60;99.90;;;;;;2088151;28;20033;-73
2024/01/30 03:51:00;;;;;;;48.67;26.33;;;2.60;99.90;;;;;;2089364;28;20462;-72
2024/01/30 03:52:00;;;;;;;49.35;27.77;;;2.60;99.90;;;;;;2093750;28;20486;-73
2024/01/30 03:53:01;;;;;;;48.20;27.02;;;2.60;99.90;;;;;;2088417;28;20032;-72
2024/01/30 03:54:01;;;;;;;49.25;27.17;;;2.50;99.90;;;;;;2088719;28;20024;-72
2024/01/30 03:55:02;;;;;;;47.35;26.52;;;2.50;99.90;;;;;;2093544;28;20058;-73
2024/01/30 03:56:03;;;;;;;49.55;26.50;;;2.50;99.90;;;;;;2090600;28;20549;-73
2024/01/30 03:57:03;;;;;;;49.05;27.15;;;2.60;99.90;;;;;;2092994;28;20406;-72
2024/01/30 03:58:04;;;;;;;49.42;26.55;;;2.60;99.90;;;;;;2092950;28;20033;-72
2024/01/30 03:59:04;;;;;;;49.40;27.10;;;2.60;99.90;;;;;;2088164;28;20025;-72
2024/01/30 04:00:06;;;;;;;50.97;27.90;;;2.60;99.90;;;;;;2086591;28;20483;-73
2024/01/30 04:01:15;;;;;;;48.92;27.65;;;2.60;99.90;;;;;;2095511;28;20031;-72
2024/01/30 04:02:16;;;;;;;49.88;27.35;;;2.60;99.90;;;;;;2086136;28;20494;-72
2024/01/30 04:03:16;;;;;;;50.00;27.50;;;2.60;99.90;;;;;;2088891;28;20028;-72
2024/01/30 04:04:18;;;;;;;55.20;28.75;;;2.60;99.90;;;;;;2085386;28;20029;-72
2024/01/30 04:05:19;;;;;;;49.38;28.15;;;2.60;99.90;;;;;;2084772;28;20051;-72
2024/01/30 04:06:19;;;;;;;50.70;28.15;;;2.60;99.90;;;;;;2085206;28;20028;-72
2024/01/30 04:07:20;;;;;;;51.42;28.05;;;2.60;99.90;;;;;;2084433;28;20391;-72
2024/01/30 04:08:21;;;;;;;52.45;27.92;;;2.60;99.90;;;;;;2084281;28;20024;-72
2024/01/30 04:09:21;;;;;;;50.60;28.05;;;2.60;99.90;;;;;;2085191;28;20636;-72
2024/01/30 04:10:22;;;;;;;57.88;28.92;;;2.60;99.90;;;;;;2085119;28;20025;-72
2024/01/30 04:11:22;;;;;;;49.28;26.77;;;2.60;99.90;;;;;;2085718;28;20056;-72
2024/01/30 04:12:23;;;;;;;52.85;27.50;;;2.60;99.90;;;;;;2088632;28;20071;-73
2024/01/30 04:13:23;;;;;;;50.00;27.10;;;2.60;99.90;;;;;;2089717;28;20098;-73
2024/01/30 04:14:24;;;;;;;53.45;27.75;;;2.70;99.90;;;;;;2092067;28;20028;-72
2024/01/30 04:15:24;;;;;;;50.22;26.88;;;2.60;99.90;;;;;;2092224;28;20032;-70
2024/01/30 04:16:25;;;;;;;68.47;32.83;;;2.70;99.90;;;;;;2093191;28;20035;-73
2024/01/30 04:17:25;;;;;;;56.67;29.33;;;2.60;99.90;;;;;;2092774;28;20105;-73
2024/01/30 04:18:26;;;;;;;60.40;30.42;;;2.70;99.90;;;;;;2085004;28;20035;-72
2024/01/30 04:19:26;;;;;;;56.33;29.05;;;2.60;99.90;;;;;;2092812;28;20032;-72
2024/01/30 04:20:27;;;;;;;54.55;27.60;;;2.70;99.90;;;;;;2096175;28;20081;-72
2024/01/30 04:21:27;;;;;;;55.75;29.02;;;2.70;99.90;;;;;;2085440;28;20491;-72
2024/01/30 04:22:28;;;;;;;55.85;29.38;;;2.70;99.90;;;;;;2092909;28;20078;-73
2024/01/30 04:23:28;;;;;;;49.00;25.90;;;2.70;99.90;;;;;;2095968;28;20121;-71
2024/01/30 04:24:29;;;;;;;52.20;27.45;;;2.60;99.90;;;;;;2086733;28;20037;-71
2024/01/30 04:25:29;;;;;;;53.35;28.17;;;2.70;99.90;;;;;;2085208;28;20600;-72
2024/01/30 04:26:30;;;;;;;54.08;28.85;;;2.70;99.90;;;;;;2092906;28;20058;-72
2024/01/30 04:27:31;;;;;;;51.13;27.13;;;2.60;99.90;;;;;;2086729;28;20033;-72
2024/01/30 04:28:31;;;;;;;49.28;27.63;;;2.60;99.90;;;;;;2091396;28;20036;-71
2024/01/30 04:29:33;;;;;;;55.25;28.45;;;2.60;99.90;;;;;;2092948;28;20028;-72
2024/01/30 04:30:33;;;;;;;54.83;28.55;;;2.60;99.90;;;;;;2087264;28;20553;-72
2024/01/30 04:31:36;;;;;;;59.25;29.13;;;2.60;99.90;;;;;;2095978;28;20032;-73
2024/01/30 04:32:37;;;;;;;70.78;33.25;;;2.60;99.90;;;;;;2088372;28;20490;-73
2024/01/30 04:33:37;;;;;;;73.15;34.25;;;2.60;99.90;;;;;;2091188;28;20028;-71
2024/01/30 04:34:38;;;;;;;55.55;29.10;;;2.60;99.90;;;;;;2089947;28;20036;-72
2024/01/30 04:35:38;;;;;;;55.60;29.40;;;2.60;99.90;;;;;;2090460;28;20040;-72
2024/01/30 04:36:39;;;;;;;74.63;35.67;;;2.60;99.90;;;;;;2094642;28;20032;-72
2024/01/30 04:37:39;;;;;;;61.50;30.92;;;2.60;99.90;;;;;;2093446;28;20453;-74
2024/01/30 04:38:40;;;;;;;57.30;29.50;;;2.60;99.90;;;;;;2086441;28;20158;-72
2024/01/30 04:39:41;;;;;;;50.92;27.73;;;2.60;99.90;;;;;;2087533;28;20052;-73
2024/01/30 04:40:41;;;;;;;50.67;27.20;;;2.60;99.90;;;;;;2084947;28;20032;-71
2024/01/30 04:41:42;;;;;;;50.67;27.40;;;2.60;99.90;;;;;;2086764;28;20476;-72
2024/01/30 04:42:42;;;;;;;61.78;30.85;;;2.60;99.90;;;;;;2087240;28;20037;-72
2024/01/30 04:43:43;;;;;;;68.90;33.25;;;2.60;99.90;;;;;;2092425;28;20545;-72
2024/01/30 04:44:43;;;;;;;57.45;29.38;;;2.60;99.90;;;;;;2088341;28;20480;-73
2024/01/30 04:45:44;;;;;;;56.65;28.67;;;2.60;99.90;;;;;;2088907;28;20101;-72
2024/01/30 04:46:45;;;;;;;56.72;29.67;;;2.60;99.90;;;;;;2088633;28;20098;-72
2024/01/30 04:47:46;;;;;;;53.28;28.27;;;2.60;99.90;;;;;;2088057;28;20048;-72
2024/01/30 04:48:46;;;;;;;54.72;29.85;;;2.50;99.90;;;;;;2090220;28;20041;-73
2024/01/30 04:49:47;;;;;;;50.42;28.30;;;2.60;99.90;;;;;;2094102;28;20039;-72
2024/01/30 04:50:47;;;;;;;50.00;26.92;;;2.60;99.90;;;;;;2084327;28;20040;-73
2024/01/30 04:51:48;;;;;;;54.95;29.17;;;2.60;99.90;;;;;;2089654;28;20028;-73
2024/01/30 04:52:48;;;;;;;54.05;29.90;;;2.60;99.90;;;;;;2095079;28;20501;-72
2024/01/30 04:53:49;;;;;;;57.92;30.30;;;2.60;99.90;;;;;;2092653;28;20044;-73
2024/01/30 04:54:49;;;;;;;67.60;32.63;;;2.50;99.90;;;;;;2088880;28;20427;-72
2024/01/30 04:55:50;;;;;;;49.20;27.67;;;2.60;99.90;;;;;;2090938;28;20507;-72
2024/01/30 04:56:50;;;;;;;53.47;27.15;;;2.60;99.90;;;;;;2086563;28;20516;-71
2024/01/30 04:57:51;;;;;;;67.47;32.45;;;2.60;99.90;;;;;;2087005;28;20048;-73
2024/01/30 04:58:52;;;;;;;77.18;29.60;;;2.70;99.90;;;;;;2085709;28;20048;-73
2024/01/30 04:59:52;;;;;;;60.67;30.33;;;2.80;99.90;;;;;;2084080;28;20076;-72
2024/01/30 05:00:53;;;;;;;87.00;31.25;;;2.80;99.90;;;;;;2089930;28;21078;-73
2024/01/30 05:01:53;;;;;;;72.82;31.20;;;2.80;99.90;;;;;;2087699;28;20510;-73
2024/01/30 05:02:57;;;;;;;59.15;28.55;;;2.90;99.90;;;;;;2084674;28;20036;-73
2024/01/30 05:03:57;;;;;;;54.08;28.38;;;2.90;99.90;;;;;;2090824;28;20028;-72
2024/01/30 05:04:58;;;;;;;54.33;27.58;;;2.80;99.90;;;;;;2086384;28;20040;-73
2024/01/30 05:05:58;;;;;;;49.47;27.30;;;2.80;99.90;;;;;;2084891;28;20427;-73
2024/01/30 05:06:59;;;;;;;52.10;27.95;;;2.80;99.90;;;;;;2090275;28;20036;-73
2024/01/30 05:08:00;;;;;;;59.47;30.70;;;2.80;99.90;;;;;;2085864;28;20494;-72
2024/01/30 05:09:00;;;;;;;61.50;31.40;;;2.70;99.90;;;;;;2088340;28;20395;-72
2024/01/30 05:10:01;;;;;;;54.95;28.35;;;2.80;99.90;;;;;;2091471;28;20034;-71
2024/01/30 05:11:03;;;;;;;61.95;31.33;;;2.80;99.90;;;;;;2090881;28;20103;-75
2024/01/30 05:12:04;;;;;;;58.25;29.65;;;2.80;99.90;;;;;;2084907;28;20033;-74